Time;durP1;ratioP1;P1;durP2;ratioP2;P2;SDS_P1;SDS_P2;PMS_P1;PMS_P2;Temp;Humidity;BMP_temperature;BMP_pressure;BME280_temperature;BME280_humidity;BME280_pressure;Samples;Min_cycle;Max_cycle;Signal;HPM_P1;HPM_P2
2022/03/25 00:00:40;;;;;;;44.28;36.75;;;6.50;97.30;;;;;;4994770;28;20121;-75
2022/03/25 00:03:06;;;;;;;46.95;37.45;;;6.20;98.30;;;;;;4989447;28;20054;-76
2022/03/25 00:05:32;;;;;;;45.53;37.28;;;6.20;98.60;;;;;;4980012;28;20053;-76
2022/03/25 00:07:58;;;;;;;43.35;35.28;;;6.20;99.20;;;;;;5000973;28;20057;-74
2022/03/25 00:10:23;;;;;;;41.78;35.03;;;6.40;98.70;;;;;;5005902;28;20021;-75
2022/03/25 00:12:49;;;;;;;45.92;36.97;;;6.40;98.90;;;;;;5005988;28;20101;-75
2022/03/25 00:15:16;;;;;;;44.13;36.05;;;6.30;99.30;;;;;;5008330;28;20107;-74
2022/03/25 00:17:41;;;;;;;44.70;36.38;;;6.30;99.70;;;;;;5006374;28;20488;-74
2022/03/25 00:20:08;;;;;;;47.03;37.78;;;6.20;99.90;;;;;;5012806;28;20033;-75
2022/03/25 00:22:34;;;;;;;44.55;36.78;;;6.10;99.90;;;;;;5006328;28;20025;-75
2022/03/25 00:25:00;;;;;;;43.63;36.03;;;6.10;99.90;;;;;;5003467;28;20034;-75
2022/03/25 00:27:25;;;;;;;45.72;36.53;;;6.00;99.90;;;;;;5006205;28;20022;-75
2022/03/25 00:29:51;;;;;;;45.13;35.30;;;5.90;99.90;;;;;;5010241;28;20034;-75
2022/03/25 00:32:16;;;;;;;45.15;36.95;;;6.00;99.90;;;;;;5006113;28;20515;-75
2022/03/25 00:34:43;;;;;;;46.85;37.42;;;5.90;99.90;;;;;;5006643;28;20468;-76
2022/03/25 00:37:10;;;;;;;45.13;37.72;;;5.90;99.90;;;;;;5003286;28;20026;-74
2022/03/25 00:39:36;;;;;;;45.17;37.17;;;5.80;99.90;;;;;;5004732;28;20017;-74
2022/03/25 00:42:03;;;;;;;46.50;37.78;;;5.60;99.90;;;;;;4986378;28;20026;-74
2022/03/25 00:44:29;;;;;;;43.40;37.15;;;5.60;99.90;;;;;;4998911;28;20101;-75
2022/03/25 00:46:55;;;;;;;42.55;36.33;;;5.60;99.90;;;;;;4994677;28;20105;-75
2022/03/25 00:49:20;;;;;;;47.90;39.45;;;5.60;99.90;;;;;;5000281;28;20053;-75
2022/03/25 00:51:46;;;;;;;50.15;39.25;;;5.50;99.90;;;;;;4997344;28;20023;-74
2022/03/25 00:54:13;;;;;;;47.22;38.38;;;5.70;99.90;;;;;;4996992;28;20030;-74
2022/03/25 00:56:38;;;;;;;47.33;37.85;;;5.50;99.90;;;;;;5005346;28;20357;-76
2022/03/25 00:59:04;;;;;;;47.78;38.13;;;5.40;99.90;;;;;;5003766;28;20049;-75
2022/03/25 01:01:30;;;;;;;53.30;40.08;;;5.50;99.90;;;;;;5006613;28;20057;-75
2022/03/25 01:03:55;;;;;;;50.92;41.00;;;5.40;99.90;;;;;;4993773;28;20049;-75
2022/03/25 01:06:21;;;;;;;51.75;41.47;;;5.40;99.90;;;;;;5002894;28;20080;-75
2022/03/25 01:08:47;;;;;;;50.33;39.65;;;5.40;99.90;;;;;;5008973;28;20049;-74
2022/03/25 01:11:13;;;;;;;53.92;40.65;;;5.40;99.90;;;;;;5001797;28;20540;-75
2022/03/25 01:13:39;;;;;;;50.10;39.72;;;5.50;99.90;;;;;;5005478;28;20085;-73
2022/03/25 01:16:06;;;;;;;49.40;38.40;;;5.50;99.90;;;;;;5004135;28;20062;-73
2022/03/25 01:18:31;;;;;;;48.55;38.35;;;5.60;99.90;;;;;;5004418;28;20068;-72
2022/03/25 01:20:57;;;;;;;50.55;38.45;;;5.50;99.90;;;;;;4992775;28;20030;-72
2022/03/25 01:23:24;;;;;;;51.08;38.35;;;5.50;99.90;;;;;;4992811;28;20026;-73
2022/03/25 01:25:49;;;;;;;46.75;37.15;;;5.40;99.90;;;;;;4976377;28;20073;-77
2022/03/25 01:28:15;;;;;;;45.63;38.20;;;5.30;99.90;;;;;;4986386;28;20026;-75
2022/03/25 01:30:40;;;;;;;44.15;35.70;;;5.40;99.90;;;;;;5001402;28;20026;-74
2022/03/25 01:33:06;;;;;;;44.20;37.05;;;5.40;99.90;;;;;;4990013;28;20053;-75
2022/03/25 01:35:32;;;;;;;45.47;37.75;;;5.40;99.90;;;;;;4975372;28;20022;-74
2022/03/25 01:37:58;;;;;;;44.75;37.47;;;5.40;99.90;;;;;;4993798;28;20026;-75
2022/03/25 01:40:23;;;;;;;47.60;37.85;;;5.40;99.90;;;;;;5005525;28;20018;-74
2022/03/25 01:42:49;;;;;;;48.65;37.85;;;5.50;99.90;;;;;;5008265;28;20380;-75
2022/03/25 01:45:32;;;;;;;45.58;36.60;;;5.50;99.90;;;;;;5006252;28;20030;-74
2022/03/25 01:47:58;;;;;;;45.90;36.75;;;5.50;99.90;;;;;;4989458;28;20026;-74
2022/03/25 01:50:24;;;;;;;44.35;36.45;;;5.40;99.90;;;;;;5000644;28;20022;-74
2022/03/25 01:52:51;;;;;;;46.35;37.78;;;5.20;99.90;;;;;;5005705;28;20041;-75
2022/03/25 01:55:26;;;;;;;45.90;37.42;;;5.00;99.90;;;;;;4997635;28;20105;-74
2022/03/25 01:57:56;;;;;;;48.30;38.80;;;4.90;99.90;;;;;;4992704;28;20027;-74
2022/03/25 02:00:23;;;;;;;47.08;37.67;;;4.80;99.90;;;;;;4980068;28;20266;-75
2022/03/25 02:02:49;;;;;;;45.97;37.00;;;4.70;99.90;;;;;;4962378;28;20078;-74
2022/03/25 02:05:15;;;;;;;44.95;37.67;;;4.80;99.90;;;;;;4968889;28;20110;-76
2022/03/25 02:07:41;;;;;;;48.38;37.15;;;4.90;99.90;;;;;;4985975;28;20033;-75
2022/03/25 02:10:07;;;;;;;47.53;37.88;;;4.80;99.90;;;;;;4979571;28;20022;-74
2022/03/25 02:12:35;;;;;;;45.72;37.75;;;4.70;99.90;;;;;;4979533;28;20374;-74
2022/03/25 02:15:02;;;;;;;46.30;38.17;;;4.60;99.90;;;;;;4978934;28;20033;-75
2022/03/25 02:17:27;;;;;;;48.25;38.28;;;4.50;99.90;;;;;;4985927;28;20034;-75
2022/03/25 02:19:53;;;;;;;47.03;38.03;;;4.40;99.90;;;;;;4968280;28;20027;-74
2022/03/25 02:22:18;;;;;;;47.25;38.55;;;4.30;99.90;;;;;;4985690;28;20080;-73
2022/03/25 02:24:44;;;;;;;46.33;37.15;;;4.30;99.90;;;;;;4979474;28;20500;-73
2022/03/25 02:27:12;;;;;;;45.97;38.38;;;4.20;99.90;;;;;;4968810;28;20508;-73
2022/03/25 02:29:39;;;;;;;47.38;39.25;;;4.10;99.90;;;;;;4961920;28;20045;-75
2022/03/25 02:32:05;;;;;;;48.33;38.75;;;4.10;99.90;;;;;;4979335;28;20041;-74
2022/03/25 02:34:30;;;;;;;50.03;39.08;;;4.30;99.90;;;;;;4968354;28;20031;-73
2022/03/25 02:36:56;;;;;;;45.85;38.25;;;4.40;99.90;;;;;;4985413;28;20436;-73
2022/03/25 02:39:22;;;;;;;48.63;38.92;;;4.40;99.90;;;;;;4979117;28;20089;-73
2022/03/25 02:41:48;;;;;;;48.58;38.88;;;4.50;99.90;;;;;;4979520;28;20510;-73
2022/03/25 02:44:14;;;;;;;49.45;39.80;;;4.30;99.90;;;;;;4985930;28;20073;-73
2022/03/25 02:46:39;;;;;;;48.05;39.20;;;4.20;99.90;;;;;;4967921;28;20030;-74
2022/03/25 02:49:05;;;;;;;45.30;38.63;;;4.20;99.90;;;;;;4978991;28;20037;-74
2022/03/25 02:51:30;;;;;;;47.55;41.13;;;4.10;99.90;;;;;;4979377;28;20045;-74
2022/03/25 02:53:56;;;;;;;47.25;39.58;;;4.00;99.90;;;;;;4997575;28;20088;-74
2022/03/25 02:56:24;;;;;;;49.50;40.05;;;3.90;99.90;;;;;;4999145;28;20022;-75
2022/03/25 02:58:50;;;;;;;46.95;39.00;;;3.90;99.90;;;;;;4961552;28;20509;-75
2022/03/25 03:01:15;;;;;;;50.80;40.70;;;4.10;99.90;;;;;;4974379;28;20053;-75
2022/03/25 03:03:41;;;;;;;49.60;38.60;;;4.10;99.90;;;;;;4996766;28;20061;-75
2022/03/25 03:06:07;;;;;;;50.33;40.97;;;4.20;99.90;;;;;;4991477;28;20038;-75
2022/03/25 03:08:35;;;;;;;51.17;39.83;;;4.10;99.90;;;;;;4976047;28;20025;-75
2022/03/25 03:11:01;;;;;;;49.88;40.10;;;4.00;99.90;;;;;;5006502;28;20077;-75
2022/03/25 03:13:26;;;;;;;48.30;39.80;;;3.90;99.90;;;;;;4955162;28;20023;-75
2022/03/25 03:15:52;;;;;;;47.60;39.00;;;4.10;99.90;;;;;;4972461;28;20081;-74
2022/03/25 03:18:20;;;;;;;48.55;39.78;;;4.00;99.90;;;;;;4989191;28;20029;-73
2022/03/25 03:20:46;;;;;;;50.63;41.58;;;3.90;99.90;;;;;;4984383;28;20033;-74
2022/03/25 03:23:12;;;;;;;53.45;42.55;;;3.80;99.90;;;;;;4984882;28;20397;-75
2022/03/25 03:25:37;;;;;;;49.55;40.33;;;3.90;99.90;;;;;;4973065;28;20106;-74
2022/03/25 03:28:04;;;;;;;50.58;40.97;;;3.80;99.90;;;;;;4988528;28;20225;-75
2022/03/25 03:30:29;;;;;;;50.08;40.33;;;3.80;99.90;;;;;;4971296;28;20027;-74
2022/03/25 03:32:57;;;;;;;50.83;40.42;;;3.80;99.90;;;;;;4983120;28;20033;-75
2022/03/25 03:35:24;;;;;;;46.92;39.28;;;3.80;99.90;;;;;;4964874;28;20039;-75
2022/03/25 03:37:49;;;;;;;48.80;40.05;;;3.90;99.90;;;;;;4969953;28;20073;-76
2022/03/25 03:40:15;;;;;;;49.85;40.78;;;3.70;99.90;;;;;;4972999;28;20473;-78
2022/03/25 03:42:42;;;;;;;52.63;41.25;;;3.50;99.90;;;;;;4987721;28;20461;-75
2022/03/25 03:45:08;;;;;;;51.00;41.45;;;3.30;99.90;;;;;;4988754;28;20030;-75
2022/03/25 03:47:35;;;;;;;48.97;41.08;;;3.40;99.90;;;;;;4983346;28;20127;-74
2022/03/25 03:50:01;;;;;;;52.08;41.47;;;3.40;99.90;;;;;;4981683;28;20389;-74
2022/03/25 03:52:27;;;;;;;51.55;42.17;;;3.20;99.90;;;;;;4983269;28;20023;-75
2022/03/25 03:54:52;;;;;;;50.97;41.95;;;3.30;99.90;;;;;;4985566;28;20041;-75
2022/03/25 03:57:18;;;;;;;46.97;41.25;;;3.10;99.90;;;;;;4991794;28;20034;-76
2022/03/25 03:59:43;;;;;;;48.28;40.55;;;3.10;99.90;;;;;;4988291;28;20030;-76
2022/03/25 04:02:09;;;;;;;51.90;42.38;;;3.00;99.90;;;;;;4982872;28;20404;-75
2022/03/25 04:04:35;;;;;;;48.33;41.53;;;3.00;99.90;;;;;;4993011;28;20025;-75
2022/03/25 04:07:01;;;;;;;48.05;40.25;;;2.90;99.90;;;;;;4986995;28;20026;-75
2022/03/25 04:09:27;;;;;;;51.00;41.92;;;2.80;99.90;;;;;;4993656;28;20036;-75
2022/03/25 04:11:53;;;;;;;49.78;40.50;;;2.80;99.90;;;;;;4982643;28;20031;-75
2022/03/25 04:14:20;;;;;;;47.55;40.30;;;2.80;99.90;;;;;;4964349;28;20046;-75
2022/03/25 04:16:46;;;;;;;48.20;40.53;;;2.80;99.90;;;;;;4986778;28;20019;-76
2022/03/25 04:19:12;;;;;;;50.97;41.28;;;2.70;99.90;;;;;;4977587;28;20102;-76
2022/03/25 04:21:38;;;;;;;46.97;40.10;;;2.80;99.90;;;;;;4986715;28;20015;-75
2022/03/25 04:24:04;;;;;;;51.47;42.28;;;2.70;99.90;;;;;;4988165;28;20097;-74
2022/03/25 04:26:29;;;;;;;48.65;40.80;;;2.70;99.90;;;;;;4982772;28;20034;-76
2022/03/25 04:28:55;;;;;;;51.28;41.97;;;2.70;99.90;;;;;;4981601;28;20031;-75
2022/03/25 04:31:20;;;;;;;50.05;40.40;;;2.60;99.90;;;;;;4986899;28;20030;-75
2022/03/25 04:33:46;;;;;;;50.72;42.28;;;2.60;99.90;;;;;;4987669;28;20477;-75
2022/03/25 04:36:12;;;;;;;52.78;43.22;;;2.40;99.90;;;;;;4982345;28;20054;-74
2022/03/25 04:38:37;;;;;;;50.55;42.03;;;2.40;99.90;;;;;;4966278;28;20030;-75
2022/03/25 04:41:03;;;;;;;49.13;41.42;;;2.50;99.90;;;;;;5002636;28;20034;-75
2022/03/25 04:43:29;;;;;;;54.47;41.78;;;2.40;99.90;;;;;;4987945;28;20034;-75
2022/03/25 04:45:54;;;;;;;51.63;43.38;;;2.40;99.90;;;;;;4981994;28;20076;-76
2022/03/25 04:48:20;;;;;;;52.90;41.42;;;2.40;99.90;;;;;;4981166;28;20053;-75
2022/03/25 04:50:46;;;;;;;51.92;43.08;;;2.40;99.90;;;;;;4992036;28;20022;-75
2022/03/25 04:53:12;;;;;;;52.78;43.97;;;2.40;99.90;;;;;;4981142;28;20033;-75
2022/03/25 04:55:37;;;;;;;56.03;44.05;;;2.50;99.90;;;;;;4976817;28;20480;-75
2022/03/25 04:58:03;;;;;;;53.75;43.40;;;2.30;99.90;;;;;;4980936;28;20114;-77
2022/03/25 05:00:28;;;;;;;50.55;43.05;;;2.30;99.90;;;;;;4968688;28;20022;-75
2022/03/25 05:02:54;;;;;;;53.63;44.08;;;2.30;99.90;;;;;;4987485;28;20026;-76
2022/03/25 05:05:19;;;;;;;53.33;41.75;;;2.20;99.90;;;;;;4964023;28;20030;-74
2022/03/25 05:07:47;;;;;;;51.60;44.22;;;2.20;99.90;;;;;;4980226;28;20397;-75
2022/03/25 05:10:13;;;;;;;54.47;43.83;;;2.00;99.90;;;;;;4986568;28;20444;-76
2022/03/25 05:12:42;;;;;;;58.13;45.20;;;2.00;99.90;;;;;;4989292;28;20515;-76
2022/03/25 05:15:09;;;;;;;52.70;43.30;;;2.10;99.90;;;;;;4983265;28;20049;-76
2022/03/25 05:17:34;;;;;;;53.53;43.63;;;2.00;99.90;;;;;;4982332;28;20073;-76
2022/03/25 05:20:05;;;;;;;50.88;42.78;;;2.10;99.90;;;;;;4989641;28;20035;-76
2022/03/25 05:22:30;;;;;;;55.53;45.33;;;2.10;99.90;;;;;;4979797;28;20034;-76
2022/03/25 05:24:56;;;;;;;87.78;72.60;;;2.20;99.90;;;;;;4972260;28;20026;-76
2022/03/25 05:27:21;;;;;;;60.90;49.70;;;2.30;99.90;;;;;;4989844;28;20396;-77
2022/03/25 05:29:47;;;;;;;51.67;42.65;;;2.50;99.90;;;;;;4965829;28;20038;-76
2022/03/25 05:32:13;;;;;;;53.05;42.28;;;2.70;99.90;;;;;;4997028;28;20031;-77
2022/03/25 05:34:39;;;;;;;54.17;44.85;;;2.70;99.90;;;;;;4988356;28;20477;-76
2022/03/25 05:37:04;;;;;;;54.85;44.95;;;2.70;99.90;;;;;;5013371;28;20033;-77
2022/03/25 05:39:30;;;;;;;55.25;45.97;;;2.80;99.90;;;;;;4992682;28;20043;-76
2022/03/25 05:41:56;;;;;;;55.17;44.13;;;2.70;99.90;;;;;;4992292;28;20536;-77
2022/03/25 05:44:21;;;;;;;55.83;45.58;;;2.80;99.90;;;;;;4956283;28;20031;-73
2022/03/25 05:46:47;;;;;;;59.75;46.20;;;2.80;99.90;;;;;;4956869;28;20073;-74
2022/03/25 05:49:13;;;;;;;54.40;43.50;;;2.60;99.90;;;;;;4967899;28;20031;-74
2022/03/25 05:51:38;;;;;;;56.85;44.33;;;2.60;99.90;;;;;;4968774;28;20046;-74
2022/03/25 05:54:04;;;;;;;52.83;43.42;;;2.60;99.90;;;;;;4980328;28;20460;-74
2022/03/25 05:56:29;;;;;;;59.72;45.90;;;2.80;99.90;;;;;;4962263;28;20023;-74
2022/03/25 05:58:55;;;;;;;54.45;44.17;;;2.50;99.90;;;;;;4999433;28;20030;-74
2022/03/25 06:01:20;;;;;;;65.30;47.25;;;2.40;99.90;;;;;;4979643;28;20415;-74
2022/03/25 06:03:46;;;;;;;67.28;46.20;;;2.50;99.90;;;;;;4985189;28;20113;-74
2022/03/25 06:06:12;;;;;;;65.63;45.78;;;2.70;99.90;;;;;;4970874;28;20034;-74
2022/03/25 06:08:38;;;;;;;57.30;44.15;;;2.90;99.90;;;;;;4987158;28;20057;-74
2022/03/25 06:11:03;;;;;;;53.25;43.45;;;3.00;99.90;;;;;;4962065;28;20515;-74
2022/03/25 06:13:29;;;;;;;58.75;44.55;;;3.00;99.90;;;;;;5000183;28;20395;-74
2022/03/25 06:15:55;;;;;;;56.80;43.65;;;3.10;99.90;;;;;;4996472;28;20033;-76
2022/03/25 06:18:21;;;;;;;52.78;43.28;;;3.10;99.90;;;;;;4975166;28;20030;-74
2022/03/25 06:20:47;;;;;;;57.45;43.40;;;3.20;99.90;;;;;;4986099;28;20022;-75
2022/03/25 06:23:13;;;;;;;50.58;41.08;;;3.40;99.90;;;;;;4980553;28;20034;-75
2022/03/25 06:25:39;;;;;;;55.85;43.28;;;3.50;99.90;;;;;;4978361;28;20023;-75
2022/03/25 06:28:05;;;;;;;52.38;42.42;;;3.70;99.90;;;;;;4955634;28;20042;-76
2022/03/25 06:30:34;;;;;;;54.17;43.13;;;3.80;99.90;;;;;;4970614;28;20038;-76
2022/03/25 06:33:02;;;;;;;57.67;46.33;;;3.80;99.90;;;;;;5003943;28;20030;-76
2022/03/25 06:35:27;;;;;;;58.17;45.00;;;4.00;99.90;;;;;;4960330;28;20088;-76
2022/03/25 06:37:53;;;;;;;56.85;46.08;;;4.00;99.90;;;;;;4980587;28;21033;-72
2022/03/25 06:40:20;;;;;;;54.83;43.97;;;4.00;99.90;;;;;;4980647;28;20026;-76
2022/03/25 06:42:45;;;;;;;58.60;44.58;;;4.00;99.90;;;;;;5003479;28;20019;-77
2022/03/25 06:45:13;;;;;;;53.92;44.38;;;4.10;99.90;;;;;;4979618;28;20602;-76
2022/03/25 06:47:40;;;;;;;56.92;44.83;;;4.20;99.90;;;;;;4983563;28;20413;-76
2022/03/25 06:50:07;;;;;;;55.85;45.13;;;4.40;99.90;;;;;;4968160;28;20511;-76
2022/03/25 06:52:33;;;;;;;53.67;44.03;;;4.40;99.90;;;;;;4972497;28;20027;-76
2022/03/25 06:54:59;;;;;;;57.53;43.90;;;4.60;99.90;;;;;;4968526;28;20023;-75
2022/03/25 06:57:25;;;;;;;58.70;44.83;;;4.70;99.90;;;;;;4981538;28;20122;-76
2022/03/25 06:59:51;;;;;;;58.80;44.05;;;4.60;99.90;;;;;;4979304;28;20627;-75
2022/03/25 07:02:17;;;;;;;56.25;43.85;;;4.70;99.90;;;;;;4977173;28;20030;-75
2022/03/25 07:04:43;;;;;;;51.45;43.28;;;4.80;99.90;;;;;;4989303;28;20030;-76
2022/03/25 07:07:09;;;;;;;52.15;43.33;;;4.80;99.90;;;;;;4978623;28;20477;-76
2022/03/25 07:09:35;;;;;;;52.92;44.55;;;5.00;99.90;;;;;;4995700;28;20042;-77
2022/03/25 07:12:02;;;;;;;52.53;41.42;;;5.20;99.90;;;;;;4978199;28;20041;-78
2022/03/25 07:14:27;;;;;;;55.72;43.40;;;5.20;99.90;;;;;;4982556;28;20118;-76
2022/03/25 07:16:53;;;;;;;52.08;42.72;;;5.40;99.90;;;;;;4986792;28;20516;-75
2022/03/25 07:19:18;;;;;;;53.10;43.67;;;5.30;99.90;;;;;;5004572;28;20048;-76
2022/03/25 07:21:44;;;;;;;52.85;44.00;;;5.40;99.90;;;;;;4969100;28;20058;-76
2022/03/25 07:24:11;;;;;;;54.67;43.95;;;5.50;99.90;;;;;;4973969;28;20592;-76
2022/03/25 07:26:37;;;;;;;53.92;43.38;;;5.60;99.90;;;;;;4986724;28;20469;-76
2022/03/25 07:29:03;;;;;;;52.28;42.97;;;5.70;99.90;;;;;;4975964;28;20039;-76
2022/03/25 07:31:32;;;;;;;52.17;42.70;;;5.80;99.90;;;;;;4958542;28;20030;-76
2022/03/25 07:34:00;;;;;;;50.45;42.20;;;6.00;99.90;;;;;;4988942;28;20026;-75
2022/03/25 07:36:26;;;;;;;53.85;43.03;;;6.10;99.90;;;;;;4968016;28;20092;-77
2022/03/25 07:38:51;;;;;;;51.85;42.83;;;6.30;99.90;;;;;;4990688;28;20480;-76
2022/03/25 07:41:18;;;;;;;51.00;41.08;;;6.40;99.90;;;;;;4968480;28;20035;-77
2022/03/25 07:43:44;;;;;;;55.35;42.80;;;6.60;99.90;;;;;;4975889;28;20033;-76
2022/03/25 07:46:10;;;;;;;52.72;41.25;;;6.80;99.90;;;;;;4967675;28;20113;-76
2022/03/25 07:48:36;;;;;;;57.05;42.55;;;6.90;99.90;;;;;;4981988;28;20023;-76
2022/03/25 07:51:02;;;;;;;50.90;41.28;;;7.00;99.90;;;;;;4986338;28;20053;-76
2022/03/25 07:53:27;;;;;;;52.78;41.47;;;7.10;99.90;;;;;;4991795;28;20026;-76
2022/03/25 07:55:53;;;;;;;51.20;40.53;;;7.30;99.90;;;;;;4980610;28;20026;-76
2022/03/25 07:58:19;;;;;;;51.38;40.90;;;7.40;99.90;;;;;;4988473;28;20026;-76
2022/03/25 08:00:49;;;;;;;49.42;40.92;;;7.50;99.90;;;;;;4985129;28;20058;-76
2022/03/25 08:03:16;;;;;;;50.03;38.97;;;7.60;99.90;;;;;;4991743;28;20015;-76
2022/03/25 08:05:47;;;;;;;53.78;39.97;;;7.70;99.90;;;;;;4967922;28;20400;-75
2022/03/25 08:08:12;;;;;;;49.60;39.78;;;7.90;99.90;;;;;;4990315;28;20026;-76
2022/03/25 08:10:39;;;;;;;54.08;39.65;;;8.00;99.90;;;;;;4983997;28;20030;-76
2022/03/25 08:13:07;;;;;;;51.67;40.80;;;8.10;99.90;;;;;;4961930;28;20026;-76
2022/03/25 08:15:34;;;;;;;48.95;38.90;;;8.20;99.90;;;;;;4966421;28;20085;-76
2022/03/25 08:18:01;;;;;;;49.22;39.95;;;8.40;99.90;;;;;;4970793;28;20073;-76
2022/03/25 08:20:28;;;;;;;52.03;40.58;;;8.50;99.90;;;;;;4987552;28;20022;-77
2022/03/25 08:22:56;;;;;;;51.50;39.92;;;8.70;99.90;;;;;;4965066;28;20076;-76
2022/03/25 08:28:07;;;;;;;48.35;38.70;;;8.90;99.90;;;;;;4982134;28;20033;-75
2022/03/25 08:30:33;;;;;;;51.33;39.28;;;9.10;99.90;;;;;;4964183;28;20023;-76
2022/03/25 08:33:02;;;;;;;50.40;39.33;;;9.10;99.90;;;;;;4989147;28;20029;-76
2022/03/25 08:35:28;;;;;;;50.90;39.15;;;9.40;99.90;;;;;;4981177;28;20082;-77
2022/03/25 08:37:55;;;;;;;48.70;36.35;;;9.40;99.90;;;;;;4986354;28;20034;-76
2022/03/25 08:40:22;;;;;;;46.50;37.30;;;9.50;99.90;;;;;;4975564;28;20026;-77
2022/03/25 08:42:48;;;;;;;48.50;37.05;;;9.60;99.90;;;;;;4993739;28;20022;-76
2022/03/25 08:45:15;;;;;;;48.85;37.65;;;9.80;99.90;;;;;;4992701;28;20081;-76
2022/03/25 08:47:41;;;;;;;49.42;37.38;;;9.90;99.90;;;;;;4974512;28;20023;-76
2022/03/25 08:50:07;;;;;;;52.10;38.97;;;10.10;99.90;;;;;;4989050;28;20022;-76
2022/03/25 08:52:33;;;;;;;48.05;37.22;;;10.20;99.90;;;;;;4985494;28;20031;-75
2022/03/25 08:54:58;;;;;;;51.53;38.00;;;10.30;99.90;;;;;;4973369;28;20026;-76
2022/03/25 08:57:24;;;;;;;49.78;37.65;;;10.40;99.90;;;;;;5005341;28;20503;-76
2022/03/25 08:59:49;;;;;;;48.88;36.83;;;10.70;99.90;;;;;;4982968;28;20496;-76
2022/03/25 09:02:15;;;;;;;49.05;35.83;;;10.80;99.90;;;;;;4993432;28;20022;-75
2022/03/25 09:04:41;;;;;;;48.58;36.47;;;10.90;99.90;;;;;;4993443;28;20034;-73
2022/03/25 09:07:06;;;;;;;45.80;34.95;;;10.90;99.90;;;;;;4999353;28;20053;-72
2022/03/25 09:09:32;;;;;;;48.22;34.88;;;11.20;99.90;;;;;;4993325;28;20472;-72
2022/03/25 09:11:58;;;;;;;47.13;36.15;;;11.60;99.90;;;;;;4993241;28;20034;-72
2022/03/25 09:14:24;;;;;;;50.28;35.97;;;11.50;99.90;;;;;;5006787;28;20048;-77
2022/03/25 09:16:49;;;;;;;46.17;35.10;;;11.50;99.90;;;;;;4985255;28;20038;-77
2022/03/25 09:19:14;;;;;;;47.30;35.97;;;11.50;99.90;;;;;;4986886;28;20038;-76
2022/03/25 09:21:40;;;;;;;49.05;36.78;;;11.60;99.90;;;;;;4964864;28;20026;-77
2022/03/25 09:24:06;;;;;;;48.92;34.78;;;11.80;99.90;;;;;;4979696;28;20095;-76
2022/03/25 09:26:33;;;;;;;49.20;35.35;;;11.90;99.90;;;;;;4985245;28;20022;-76
2022/03/25 09:28:58;;;;;;;46.08;34.22;;;11.90;99.90;;;;;;5000006;28;20022;-76
2022/03/25 09:31:24;;;;;;;47.40;34.33;;;12.10;99.90;;;;;;4974451;28;20034;-76
2022/03/25 09:33:49;;;;;;;44.47;33.22;;;12.20;99.90;;;;;;4991459;28;20077;-76
2022/03/25 09:36:15;;;;;;;43.00;32.83;;;12.70;99.90;;;;;;4993011;28;20041;-76
2022/03/25 09:38:41;;;;;;;48.58;34.72;;;12.90;99.90;;;;;;4991821;28;20038;-76
2022/03/25 09:41:07;;;;;;;44.53;32.55;;;12.90;99.90;;;;;;4981592;28;20053;-74
2022/03/25 09:43:34;;;;;;;47.10;32.75;;;13.00;99.90;;;;;;4962628;28;20034;-76
2022/03/25 09:46:00;;;;;;;43.03;30.90;;;13.00;98.00;;;;;;4992948;28;20109;-76
2022/03/25 09:48:26;;;;;;;46.30;30.92;;;13.00;98.10;;;;;;4988771;28;20036;-75
2022/03/25 09:50:52;;;;;;;45.92;31.77;;;13.10;97.60;;;;;;4995777;28;20026;-76
2022/03/25 09:53:17;;;;;;;45.25;31.42;;;13.20;97.70;;;;;;4991594;28;20544;-75
2022/03/25 09:55:46;;;;;;;43.58;32.05;;;13.20;97.00;;;;;;4988132;28;20037;-75
2022/03/25 09:58:18;;;;;;;43.65;31.17;;;13.40;96.30;;;;;;4992595;28;20061;-76
2022/03/25 10:00:51;;;;;;;45.65;32.28;;;13.30;95.70;;;;;;4975044;28;20026;-75
2022/03/25 10:03:36;;;;;;;44.45;31.98;;;13.30;95.10;;;;;;4989011;28;20023;-74
2022/03/25 10:06:02;;;;;;;53.50;32.92;;;13.40;94.90;;;;;;4977436;28;20054;-73
2022/03/25 10:08:31;;;;;;;48.88;34.08;;;13.50;94.60;;;;;;4992584;28;20018;-74
2022/03/25 10:11:16;;;;;;;48.08;33.47;;;13.60;94.20;;;;;;5005305;28;20029;-76
2022/03/25 10:13:41;;;;;;;49.40;33.15;;;13.60;94.10;;;;;;4990974;28;20029;-76
2022/03/25 10:16:25;;;;;;;46.17;32.90;;;13.80;93.60;;;;;;4994099;28;20504;-76
2022/03/25 10:18:54;;;;;;;50.58;33.60;;;13.80;93.60;;;;;;4969517;28;20496;-76
2022/03/25 10:21:20;;;;;;;47.67;33.20;;;13.80;93.60;;;;;;4985742;28;20507;-75
2022/03/25 10:23:46;;;;;;;49.70;34.40;;;14.00;93.00;;;;;;4997227;28;20030;-76
2022/03/25 10:26:11;;;;;;;44.13;32.13;;;13.90;93.00;;;;;;4975794;28;20026;-75
2022/03/25 10:28:40;;;;;;;46.88;33.22;;;14.20;93.80;;;;;;4988363;28;20034;-75
2022/03/25 10:31:11;;;;;;;46.50;33.17;;;14.10;91.90;;;;;;4996638;28;20026;-76
2022/03/25 10:33:45;;;;;;;50.08;34.20;;;14.10;92.50;;;;;;5005507;28;20030;-76
2022/03/25 10:36:12;;;;;;;47.97;34.30;;;14.20;91.70;;;;;;4974050;28;20034;-76
2022/03/25 10:38:48;;;;;;;44.83;32.40;;;14.10;91.10;;;;;;5003191;28;20092;-75
2022/03/25 10:41:19;;;;;;;46.67;33.05;;;14.10;91.90;;;;;;4995092;28;20400;-76
2022/03/25 10:43:54;;;;;;;51.80;33.22;;;14.40;91.50;;;;;;4965953;28;20481;-76
2022/03/25 10:46:34;;;;;;;45.17;32.17;;;14.30;90.70;;;;;;4987878;28;20034;-76
2022/03/25 10:49:03;;;;;;;50.70;34.17;;;14.50;91.10;;;;;;4978684;28;20026;-76
2022/03/25 10:51:28;;;;;;;45.67;32.28;;;14.50;90.50;;;;;;5009232;28;20017;-75
2022/03/25 10:54:03;;;;;;;46.05;32.20;;;14.50;90.50;;;;;;4982953;28;20045;-76
2022/03/25 10:56:42;;;;;;;49.05;33.00;;;14.50;90.40;;;;;;5008549;28;20369;-76
2022/03/25 10:59:23;;;;;;;46.13;33.78;;;14.70;90.60;;;;;;4992138;28;20022;-75
2022/03/25 11:01:52;;;;;;;45.65;32.28;;;14.80;90.30;;;;;;4978950;28;20036;-75
2022/03/25 11:04:17;;;;;;;47.72;34.20;;;14.70;90.30;;;;;;4992201;28;20388;-75
2022/03/25 11:06:46;;;;;;;49.60;33.10;;;14.80;89.70;;;;;;5004496;28;20028;-75
2022/03/25 11:09:13;;;;;;;46.60;32.97;;;14.70;88.80;;;;;;5004489;28;21511;-75
2022/03/25 11:11:42;;;;;;;45.35;33.70;;;14.80;89.00;;;;;;5003415;28;20030;-75
2022/03/25 11:14:09;;;;;;;46.65;31.70;;;14.80;88.20;;;;;;5011443;28;20018;-75
2022/03/25 11:16:38;;;;;;;47.92;33.45;;;15.00;89.20;;;;;;4986038;28;20413;-75
2022/03/25 11:19:04;;;;;;;45.67;32.42;;;15.00;89.80;;;;;;5006678;28;20044;-76
2022/03/25 11:21:32;;;;;;;44.55;33.25;;;15.20;89.60;;;;;;4984813;28;20018;-75
2022/03/25 11:23:58;;;;;;;47.35;33.33;;;15.20;88.30;;;;;;5003519;28;20022;-75
2022/03/25 11:26:27;;;;;;;42.00;31.10;;;15.20;88.50;;;;;;5007675;28;20025;-75
2022/03/25 11:28:57;;;;;;;43.33;31.77;;;15.10;86.80;;;;;;5006538;28;20025;-75
2022/03/25 11:31:24;;;;;;;45.25;33.47;;;15.20;87.20;;;;;;5009781;28;20105;-75
2022/03/25 11:34:12;;;;;;;45.80;31.92;;;15.00;85.80;;;;;;5011852;28;20026;-75
2022/03/25 11:36:40;;;;;;;42.40;31.52;;;15.10;86.90;;;;;;4995167;28;20019;-75
2022/03/25 11:39:24;;;;;;;44.80;30.77;;;15.20;86.10;;;;;;5012962;28;20034;-75
2022/03/25 11:41:53;;;;;;;43.35;31.35;;;15.30;86.20;;;;;;5006283;28;20541;-75
2022/03/25 11:44:20;;;;;;;42.60;30.25;;;15.20;84.90;;;;;;4995265;28;20018;-75
2022/03/25 11:46:57;;;;;;;43.95;30.98;;;15.30;85.70;;;;;;5006113;28;20018;-75
2022/03/25 11:49:23;;;;;;;45.75;31.52;;;15.30;84.80;;;;;;4991159;28;20057;-76
2022/03/25 11:51:49;;;;;;;43.40;31.30;;;15.30;85.70;;;;;;5002705;28;20069;-75
2022/03/25 11:54:41;;;;;;;44.97;31.58;;;15.50;85.20;;;;;;5001977;28;20014;-75
2022/03/25 11:57:24;;;;;;;45.05;30.88;;;15.50;85.20;;;;;;4976668;28;20030;-75
2022/03/25 11:59:52;;;;;;;42.97;29.45;;;16.00;85.50;;;;;;4990176;28;20029;-75
2022/03/25 12:02:29;;;;;;;42.97;29.50;;;16.30;84.00;;;;;;4997922;28;20022;-76
2022/03/25 12:04:56;;;;;;;42.10;29.88;;;16.60;83.20;;;;;;5000083;28;20031;-76
2022/03/25 12:07:22;;;;;;;45.70;30.70;;;17.00;81.20;;;;;;5013849;28;20022;-76
2022/03/25 12:09:48;;;;;;;42.17;30.85;;;17.40;81.40;;;;;;5005212;28;20568;-76
2022/03/25 12:12:14;;;;;;;40.03;29.42;;;17.80;78.60;;;;;;5013321;28;20018;-76
2022/03/25 12:15:05;;;;;;;37.88;27.45;;;17.90;78.80;;;;;;5010327;28;20022;-76
2022/03/25 12:17:30;;;;;;;41.83;28.05;;;18.50;76.50;;;;;;4997646;28;20042;-76
2022/03/25 12:19:56;;;;;;;40.40;28.63;;;19.20;77.50;;;;;;5002936;28;20479;-77
2022/03/25 12:22:21;;;;;;;39.53;28.95;;;19.00;73.70;;;;;;4992737;28;20057;-76
2022/03/25 12:24:52;;;;;;;40.05;30.73;;;18.70;75.00;;;;;;4990220;28;20018;-76
2022/03/25 12:27:18;;;;;;;41.63;30.00;;;19.20;74.40;;;;;;4985253;28;20022;-76
2022/03/25 12:29:51;;;;;;;41.03;30.58;;;19.50;72.10;;;;;;4995465;28;20053;-78
2022/03/25 12:32:18;;;;;;;41.03;31.48;;;19.00;74.70;;;;;;5001198;28;20101;-76
2022/03/25 12:34:58;;;;;;;39.20;30.50;;;19.40;72.60;;;;;;5013609;28;20034;-77